Charlotte Court House, Virginia
Current Conditions -  °F | °C
As of 7:55 PM on Tuesday 25 Nov 2014 (Local Time) from KCXE Reporting Station
Scattered Clouds Scattered Clouds  
Wind Chill: 50°   Ceiling: Unl
Heat Index: 50°   Visibility: 10mi
Dew Point: 45°   Wind: 3mph
Humidity: 84%   Direction: 300°WNW
Pressure: 30.11"   Gusts: NA
Location:  37.06°N, 78.64°W
Report Text: KCXE 260055Z AUTO 30003KT 10SM SCT120 10/07 A3011 RMK AO1 T01000074
Loading
Personal Weather Stations






























Interactive Weather Map New forecast layout! Learn more

10-Day Weather Forecast

Advertisements
Track Severe Weather on mobile